Station 45176 - Cleveland Intake Crib Buoy, OH Image indicating link to RSS feed of recent meteorological observations for station 45176


Conditions at 45176 as of
(10:20 pm EDT on 07/15/2024)
0220 GMT on 07/16/2024:
     

Click on the graph icon in the table below to see a time series plot of the last five days of that observation.

5-day plot - Wind Direction Wind Direction (WDIR): SE ( 130 deg true )
5-day plot - Wind Speed Wind Speed (WSPD): 3.9 kts
5-day plot - Wind Gust Wind Gust (GST): 3.9 kts
5-day plot - Wave Height Wave Height (WVHT): 1.0 ft
5-day plot - Dominant Wave Period Dominant Wave Period (DPD): 4 sec
5-day plot - Mean Wave Direction Mean Wave Direction (MWD):WNW ( 282 deg true )
5-day plot - Atmospheric Pressure Atmospheric Pressure (PRES):29.78 in
5-day plot - Air Temperature Air Temperature (ATMP): 77.2 °F
5-day plot - Water Temperature Water Temperature (WTMP): 74.7 °F
5-day plot - Dew Point Dew Point (DEWP): 71.4 °F
5-day plot - Heat Index Heat Index (HEAT): 78.8 °F
5-day plot - Wind Speed at 10 Meters Wind Speed at 10 meters (WSPD10M): 3.9 kts
5-day plot - Wind Speed at 20 Meters Wind Speed at 20 meters (WSPD20M): 3.9 kts
5-day plot -  Wind Speed, Wind Gust and Atmospheric Pressure Combined plot of Wind Speed, Gust, and Air Pressure
Previous observations
TIME
(EDT)
5-day plot - Wind Direction
WDIR
 
5-day plot - Wind Speed
WSPD
kts
5-day plot - Wind Gust
GST
kts
5-day plot - Wave Height
WVHT
ft
5-day plot - Dominant Wave Period
DPD
sec
5-day plot - Average Wave Period
APD
sec
5-day plot - Mean Wave Direction
MWD
 
5-day plot - Atmospheric Pressure
PRES
in
5-day plot - Pressure Tendency
PTDY
in
5-day plot - Air Temperature
ATMP
°F
5-day plot - Water Temperature
WTMP
°F
5-day plot - Dew Point
DEWP
°F
5-day plot - Salinity
SAL
psu
5-day plot - Visibility
VIS
nmi
5-day plot - Tide (above MLLW)
TIDE
ft
2024-07-15 10:10 pm SE 3.9 3.9 1.0 4-WNW29.78- 77.0 74.7 71.6---
2024-07-15 10:00 pm SE 3.9 5.8 1.0 4-WNW29.77-0.03 76.8 74.7 71.6---
2024-07-15 09:40 pm SE 3.9 5.8 1.0 4-WNW29.77- 76.6 74.7 71.2---
2024-07-15 09:30 pmESE 3.9 5.8 1.3 4-WNW29.78- 76.6 74.7 71.1---
2024-07-15 09:20 pmESE 3.9 3.9 1.3 4-WNW29.78- 76.6 74.7 71.4---
2024-07-15 09:10 pmESE 3.9 5.8 1.3 4-WNW29.78- 76.5 74.8 71.1---
2024-07-15 09:00 pmESE 3.9 5.8 1.3 4-WNW29.78-0.03 76.5 74.8 71.2---
2024-07-15 08:40 pmESE 3.9 3.9 1.3 4-WNW29.79- 76.5 74.8 71.2---
2024-07-15 08:30 pmESE 3.9 3.9 1.3 4- W29.79- 76.3 74.7 71.6---
2024-07-15 08:20 pmESE 3.9 5.8 1.6 4- W29.79- 76.3 74.8 71.8---
2024-07-15 08:10 pmESE 3.9 3.9 1.3 4-WNW29.80- 76.5 74.8 71.8---
2024-07-15 08:00 pm SE 3.9 3.9 1.6 4-WNW29.80-0.02 76.5 74.8 72.0---
2024-07-15 07:40 pm SE 1.9 5.8 1.6 4-WNW29.80- 77.0 74.8 71.4---
2024-07-15 07:30 pm SE 1.9 3.9 1.6 4-WNW29.80- 77.4 74.8 70.9---
2024-07-15 07:20 pmESE 1.9 1.9 2.0 4-WNW29.80- 77.0 74.8 70.7---
2024-07-15 07:10 pm- 0.0 1.9 2.3 4-WNW29.80- 77.2 74.8 71.6---
2024-07-15 07:00 pm S 1.9 1.9 2.0 4-WNW29.80-0.04 77.5 74.8 70.7---
2024-07-15 06:40 pmNNW 3.9 3.9 2.3 5-WNW29.80- 77.2 74.8 70.9---
2024-07-15 06:30 pmNNW 3.9 3.9 2.3 5-WNW29.80- 76.8 74.7 70.7---
2024-07-15 06:20 pmNNW 3.9 3.9 2.3 5-WNW29.80- 77.0 74.7 70.7---
2024-07-15 06:10 pmNNW 1.9 1.9 2.3 4-WNW29.81- 77.5 74.7 71.6---
2024-07-15 06:00 pmNNW 1.9 3.9 2.3 5-WNW29.81-0.04 76.8 74.7 71.2---
2024-07-15 05:40 pm NW 5.8 7.8 2.6 4-WNW29.81- 76.3 74.7 70.9---
2024-07-15 05:30 pm NW 5.8 7.8 2.6 4-WNW29.82- 76.3 74.5 70.9---
2024-07-15 05:20 pmNNW 5.8 7.8 2.3 5-WNW29.81- 76.1 74.5 70.5---
2024-07-15 05:10 pmNNW 5.8 7.8 2.6 4-WNW29.82- 76.1 74.5 70.7---
2024-07-15 05:00 pm NW 7.8 9.7 2.6 5-WNW29.83-0.02 75.9 74.5 70.5---
2024-07-15 04:40 pm NW 7.8 9.7 2.6 5-WNW29.83- 75.9 74.3 70.5---
2024-07-15 04:30 pm NW 9.7 11.7 3.0 5-WNW29.84- 75.7 74.3 70.5---
2024-07-15 04:20 pm NW 9.7 13.6 3.0 4-WNW29.84- 75.7 74.3 70.3---
2024-07-15 04:10 pm NW 11.7 13.6 3.0 4-WNW29.84- 75.6 74.3 70.2---
2024-07-15 04:00 pm NW 11.7 15.5 3.0 4-WNW29.84-0.01 75.7 74.3 70.2---
2024-07-15 03:40 pm NW 13.6 17.5 2.6 4-WNW29.84- 75.7 74.3 70.0---
2024-07-15 03:30 pm NW 13.6 15.5 2.6 4- W29.84- 75.7 74.3 70.0---
2024-07-15 03:20 pm NW 13.6 17.5 2.6 4-WNW29.85- 75.7 74.3 70.0---
2024-07-15 03:10 pm NW 15.5 19.4 2.6 4-WNW29.85- 75.7 74.5 70.0---
2024-07-15 03:00 pm NW 13.6 17.5 2.6 4-WNW29.85+0.02 75.6 74.3 70.2---
2024-07-15 02:40 pmWNW 15.5 17.5 2.6 4- W29.85- 76.3 74.3 70.5---
2024-07-15 02:30 pmWNW 15.5 19.4 3.0 4- W29.85- 76.3 74.3 70.3---
2024-07-15 02:20 pmWNW 15.5 17.5 2.6 4- W29.85- 76.5 74.3 70.7---
2024-07-15 02:10 pmWNW 15.5 21.4 2.6 4- W29.85- 76.6 74.3 70.5---
2024-07-15 02:00 pmWNW 17.5 19.4 2.6 4- W29.84+0.01 77.0 74.3 69.8---
2024-07-15 01:40 pmWNW 17.5 21.4 2.3 4- W29.85- 76.6 74.3 70.0---
2024-07-15 01:30 pmWNW 15.5 19.4 2.6 4- W29.85- 76.5 74.3 70.3---
2024-07-15 01:20 pmWNW 17.5 19.4 2.6 4- W29.85- 76.6 74.3 70.2---
2024-07-15 01:10 pmWNW 17.5 21.4 2.3 3- W29.84- 76.3 74.3 70.2---
2024-07-15 01:00 pmWNW 17.5 21.4 2.3 3- W29.85+0.00 76.5 74.3 70.0---
2024-07-15 12:40 pmWNW 17.5 23.3 2.0 3- W29.83- 77.0 74.5 69.6---
2024-07-15 12:30 pmWNW 17.5 23.3 2.0 3- W29.83- 77.0 74.3 70.0---
2024-07-15 12:20 pmWNW 15.5 19.4 2.0 3- W29.84- 77.5 74.5 70.5---
2024-07-15 12:10 pm W 15.5 17.5 1.6 3-WNW29.84- 79.2 74.5 70.2---
2024-07-15 12:00 pm W 15.5 19.4 1.6 3- W29.83-0.02 79.2 74.5 69.6---
2024-07-15 11:40 am W 13.6 15.5 1.6 2- W29.83- 78.6 74.3 69.8---
2024-07-15 11:30 am W 13.6 15.5 1.6 2- W29.83- 78.6 74.5 70.2---
2024-07-15 11:20 am W 11.7 15.5 1.3-- SW29.83- 78.4 74.3 70.9---
2024-07-15 11:10 am W 13.6 15.5 1.3 2- SW29.83- 78.4 74.3 71.2---
2024-07-15 11:00 amWSW 15.5 17.5 1.3-- SW29.83-0.02 78.4 74.3 71.2---
2024-07-15 10:40 am SW 13.6 17.5 1.3 2-WSW29.84- 77.7 74.3 72.1---
2024-07-15 10:30 amWSW 11.7 15.5 1.3 2- SW29.84- 77.5 74.3 72.0---
2024-07-15 10:20 am SW 13.6 15.5 1.3 2- W29.84- 77.5 74.3 71.8---
2024-07-15 10:10 am SW 11.7 13.6 1.3 3-WNW29.84- 77.5 74.3 72.0---
2024-07-15 10:00 amWSW 11.7 15.5 1.3 3- W29.84-0.01 77.7 74.3 71.8---
2024-07-15 09:40 am SW 11.7 15.5 1.6 2-WSW29.85- 78.1 74.3 72.0---
2024-07-15 09:30 am SW 11.7 13.6 1.6 3- W29.85- 77.5 74.3 71.8---
2024-07-15 09:20 am SW 15.5 19.4 1.6 4-WNW29.85- 77.7 74.3 71.8---
2024-07-15 09:10 amWSW 13.6 15.5 1.6 2-WSW29.85- 77.4 74.3 71.8---
2024-07-15 09:00 amWSW 15.5 19.4 1.6 3- W29.85-0.01 77.5 74.3 71.6---
2024-07-15 08:40 amWSW 13.6 17.5 1.6 2- SW29.85- 77.4 74.3 71.4---
2024-07-15 08:30 am SW 15.5 19.4 1.6 2- SW29.85- 77.2 74.3 71.4---
2024-07-15 08:20 am SW 13.6 17.5 1.6 2- SW29.85- 77.2 74.3 71.2---
2024-07-15 08:10 am SW 13.6 17.5 1.6 2- SW29.86- 77.2 74.3 71.2---
2024-07-15 08:00 amWSW 13.6 15.5 1.6 2-WSW29.86-0.01 76.8 74.3 71.2---
2024-07-15 07:40 am SW 15.5 17.5 2.0 2- SW29.85- 76.6 74.3 71.1---
2024-07-15 07:30 am SW 13.6 17.5 1.6 4-WNW29.85- 76.6 74.3 71.1---
2024-07-15 07:20 amWSW 15.5 17.5 1.6 2- SW29.85- 76.6 74.3 71.2---
2024-07-15 07:10 amWSW 17.5 19.4 1.6 4-WNW29.85- 76.6 74.3 71.2---
2024-07-15 07:00 amWSW 15.5 21.4 1.6 2- SW29.85-0.02 76.6 74.3 71.1---
2024-07-15 06:40 am SW 13.6 15.5 1.6 4-WNW29.84- 76.6 74.3 71.1---
2024-07-15 06:30 am SW 11.7 15.5 1.6 4-WNW29.85- 76.3 74.3 71.1---
2024-07-15 06:20 am SW 11.7 15.5 2.0 4-WNW29.85- 76.1 74.3 70.9---
2024-07-15 06:10 am SW 13.6 15.5 1.6 4-WNW29.86- 76.1 74.3 70.9---
2024-07-15 06:00 amWSW 13.6 15.5 2.0 4-WNW29.86-0.03 75.9 74.3 70.5---
2024-07-15 05:40 am SW 13.6 15.5 2.0 4-WNW29.86- 75.6 74.5 70.2---
2024-07-15 05:30 am SW 13.6 17.5 2.0 4-WNW29.86- 75.4 74.5 70.0---
2024-07-15 05:20 amWSW 13.6 17.5 2.0 4-WNW29.86- 75.6 74.5 70.2---
2024-07-15 05:10 amWSW 13.6 17.5 1.6 4-WNW29.86- 75.7 74.5 70.2---
2024-07-15 05:00 amWSW 13.6 17.5 1.6 4-WNW29.86-0.04 75.7 74.5 70.2---
2024-07-15 04:40 amWSW 13.6 15.5 2.0 4-WNW29.87- 75.6 74.5 70.0---
2024-07-15 04:30 amWSW 13.6 17.5 1.6 4-WNW29.87- 75.4 74.5 69.6---
2024-07-15 04:20 amWSW 13.6 15.5 1.6 4-WNW29.87- 75.2 74.5 69.4---
2024-07-15 04:10 amWSW 13.6 15.5 1.6 3-WNW29.87- 74.8 74.5 69.3---
2024-07-15 04:00 am SW 9.7 13.6 1.6 4-WNW29.87-0.03 74.8 74.5 69.6---
2024-07-15 03:40 amWSW 11.7 13.6 2.0 4-WNW29.87- 75.0 74.5 69.6---
2024-07-15 03:30 am SW 11.7 15.5 2.0 3-WNW29.87- 75.2 74.5 69.6---
2024-07-15 03:20 amWSW 13.6 15.5 1.6 4-WNW29.88- 75.4 74.5 69.8---
2024-07-15 03:10 amWSW 15.5 17.5 2.0 3- W29.89- 75.4 74.5 69.4---
2024-07-15 03:00 amWSW 13.6 17.5 2.0 4-WNW29.89-0.01 75.0 74.5 69.8---
2024-07-15 02:40 amWSW 13.6 15.5 1.6 4-WNW29.88- 75.4 74.5 70.5---
2024-07-15 02:30 amWSW 13.6 15.5 1.6 3-WNW29.89- 74.8 74.5 70.2---
2024-07-15 02:20 amWSW 11.7 15.5 1.6 3- W29.89- 74.1 74.5 69.6---
2024-07-15 02:10 am W 11.7 15.5 1.6 3-WNW29.90- 73.8 74.5 69.3---
2024-07-15 02:00 am W 11.7 15.5 1.6 3-WNW29.91+0.01 73.8 74.5 69.1---
2024-07-15 01:40 am W 13.6 15.5 1.6 2- W29.91- 73.8 74.7 68.5---
2024-07-15 01:30 am W 13.6 17.5 2.0 3-WNW29.91- 73.8 74.5 68.5---
2024-07-15 01:20 amWSW 13.6 17.5 1.6 4-WNW29.90- 73.9 74.7 68.5---
2024-07-15 01:10 amWSW 13.6 19.4 1.6 4-WNW29.91- 74.1 74.7 68.5---
2024-07-15 01:00 amWSW 13.6 17.5 1.6 4-WNW29.91+0.00 74.1 74.7 68.5---
2024-07-15 12:40 amWSW 11.7 15.5 1.6 3-WNW29.90- 73.9 74.7 68.5---
2024-07-15 12:30 amWSW 11.7 15.5 1.6 4-WNW29.90- 73.9 74.7 68.4---
2024-07-15 12:20 amWSW 11.7 15.5 1.6 4-WNW29.89- 74.3 74.7 68.4---
2024-07-15 12:10 amWSW 11.7 15.5 1.6 4-WNW29.89- 74.5 74.7 68.7---
2024-07-15 12:00 amWSW 11.7 15.5 1.6 4-WNW29.90-0.01 74.3 74.7 68.7---
2024-07-14 11:40 pm SW 11.7 13.6 1.6 4-WNW29.90- 74.3 74.8 68.5---
2024-07-14 11:30 pm SW 11.7 13.6 1.6 4-WNW29.90- 74.3 74.8 68.7---
2024-07-14 11:20 pm SW 11.7 13.6 1.6 4-WNW29.90- 74.3 74.8 68.9---
2024-07-14 11:10 pm SW 11.7 13.6 1.3 4-WNW29.90- 74.3 74.8 69.1---
2024-07-14 11:00 pm SW 11.7 17.5 1.3 3-WNW29.90+0.00 74.5 74.8 68.9---
2024-07-14 10:40 pm SW 9.7 11.7 1.3 4-WNW29.90- 74.7 74.8 69.6---
2024-07-14 10:30 pm SW 9.7 13.6 1.3 4-WNW29.91- 75.0 75.0 69.8---
2024-07-14 10:20 pm SW 9.7 13.6 1.3 4-WNW29.91- 75.0 75.0 70.0---
2024-07-14 10:10 pm SW 11.7 13.6 1.3 4-WNW29.91- 75.4 75.0 70.5---
2024-07-14 10:00 pmWSW 9.7 13.6 1.6 4- W29.91-0.01 75.4 75.0 70.9---

Detailed Wave Summary
for 45176 as of
(10:20 pm EDT on 07/15/2024)
0220 GMT on 07/16/2024:

These wave data are displayed in rounded times.

     

Click on the graph icon in the table below to see a time series plot of the last five days of that observation.

5-day plot - Significant Wave Height Significant Wave Height (WVHT): 1.0 ft
Previous observations
TIME
(EDT)
5-day plot - Wave Height
WVHT
ft
5-day plot - Swell Height
SwH
ft
5-day plot - Swell Period
SwP
sec
5-day plot - Swell Direction
SwD
 
5-day plot - Wind Wave Height
WWH
ft
5-day plot - Wind Wave Period
WWP
sec
5-day plot - Wind Wave Direction
WWD
 
5-day plot - Wave Steepness
STEEPNESS
 
5-day plot - Average Wave Period
APD
sec
2024-07-15 10:10 pm 1.0------ N/A-
2024-07-15 10:00 pm 1.0------ N/A-
2024-07-15 09:40 pm 1.0------ N/A-
2024-07-15 09:30 pm 1.3------ N/A-
2024-07-15 09:20 pm 1.3------ N/A-
2024-07-15 09:10 pm 1.3------ N/A-
2024-07-15 09:00 pm 1.3------ N/A-
2024-07-15 08:40 pm 1.3------ N/A-
2024-07-15 08:30 pm 1.3------ N/A-
2024-07-15 08:20 pm 1.6------ N/A-
2024-07-15 08:10 pm 1.3------ N/A-
2024-07-15 08:00 pm 1.6------ N/A-
2024-07-15 07:40 pm 1.6------ N/A-
2024-07-15 07:30 pm 1.6------ N/A-
2024-07-15 07:20 pm 2.0------ N/A-
2024-07-15 07:10 pm 2.3------ N/A-
2024-07-15 07:00 pm 2.0------ N/A-
2024-07-15 06:40 pm 2.3------ N/A-
2024-07-15 06:30 pm 2.3------ N/A-
2024-07-15 06:20 pm 2.3------ N/A-
2024-07-15 06:10 pm 2.3------ N/A-
2024-07-15 06:00 pm 2.3------ N/A-
2024-07-15 05:40 pm 2.6------ N/A-
2024-07-15 05:30 pm 2.6------VERY_STEEP-
2024-07-15 05:20 pm 2.3------ N/A-
2024-07-15 05:10 pm 2.6------ N/A-
2024-07-15 05:00 pm 2.6------ N/A-
2024-07-15 04:40 pm 2.6------VERY_STEEP-
2024-07-15 04:30 pm 3.0------VERY_STEEP-
2024-07-15 04:20 pm 3.0------VERY_STEEP-
2024-07-15 04:10 pm 3.0------VERY_STEEP-
2024-07-15 04:00 pm 3.0------VERY_STEEP-
2024-07-15 03:40 pm 2.6------VERY_STEEP-
2024-07-15 03:30 pm 2.6------ N/A-
2024-07-15 03:20 pm 2.6------VERY_STEEP-
2024-07-15 03:10 pm 2.6------VERY_STEEP-
2024-07-15 03:00 pm 2.6------VERY_STEEP-
2024-07-15 02:40 pm 2.6------VERY_STEEP-
2024-07-15 02:30 pm 3.0------VERY_STEEP-
2024-07-15 02:20 pm 2.6------VERY_STEEP-
2024-07-15 02:10 pm 2.6------VERY_STEEP-
2024-07-15 02:00 pm 2.6------ N/A-
2024-07-15 01:40 pm 2.3------ N/A-
2024-07-15 01:30 pm 2.6------ N/A-
2024-07-15 01:20 pm 2.6------ N/A-
2024-07-15 01:10 pm 2.3------ N/A-
2024-07-15 01:00 pm 2.3------ N/A-
2024-07-15 12:40 pm 2.0------ N/A-
2024-07-15 12:30 pm 2.0------ N/A-
2024-07-15 12:20 pm 2.0------ N/A-
2024-07-15 12:10 pm 1.6------ N/A-
2024-07-15 12:00 pm 1.6------ N/A-
2024-07-15 11:40 am 1.6------ N/A-
2024-07-15 11:30 am 1.6------ N/A-
2024-07-15 11:20 am 1.3------ N/A-
2024-07-15 11:10 am 1.3------ N/A-
2024-07-15 11:00 am 1.3------ N/A-
2024-07-15 10:40 am 1.3------ N/A-
2024-07-15 10:30 am 1.3------ N/A-
2024-07-15 10:20 am 1.3------ N/A-
2024-07-15 10:10 am 1.3------ N/A-
2024-07-15 10:00 am 1.3------ N/A-
2024-07-15 09:40 am 1.6------ N/A-
2024-07-15 09:30 am 1.6------ N/A-
2024-07-15 09:20 am 1.6------ N/A-
2024-07-15 09:10 am 1.6------ N/A-
2024-07-15 09:00 am 1.6------ N/A-
2024-07-15 08:40 am 1.6------ N/A-
2024-07-15 08:30 am 1.6------ N/A-
2024-07-15 08:20 am 1.6------ N/A-
2024-07-15 08:10 am 1.6------ N/A-
2024-07-15 08:00 am 1.6------ N/A-
2024-07-15 07:40 am 2.0------ N/A-
2024-07-15 07:30 am 1.6------ N/A-
2024-07-15 07:20 am 1.6------ N/A-
2024-07-15 07:10 am 1.6------ N/A-
2024-07-15 07:00 am 1.6------ N/A-
2024-07-15 06:40 am 1.6------ N/A-
2024-07-15 06:30 am 1.6------ N/A-
2024-07-15 06:20 am 2.0------ N/A-
2024-07-15 06:10 am 1.6------ N/A-
2024-07-15 06:00 am 2.0------ N/A-
2024-07-15 05:40 am 2.0------ N/A-
2024-07-15 05:30 am 2.0------ N/A-
2024-07-15 05:20 am 2.0------ N/A-
2024-07-15 05:10 am 1.6------ N/A-
2024-07-15 05:00 am 1.6------ N/A-
2024-07-15 04:40 am 2.0------ N/A-
2024-07-15 04:30 am 1.6------ N/A-
2024-07-15 04:20 am 1.6------ N/A-
2024-07-15 04:10 am 1.6------ N/A-
2024-07-15 04:00 am 1.6------ N/A-
2024-07-15 03:40 am 2.0------ N/A-
2024-07-15 03:30 am 2.0------ N/A-
2024-07-15 03:20 am 1.6------ N/A-
2024-07-15 03:10 am 2.0------ N/A-
2024-07-15 03:00 am 2.0------ N/A-
2024-07-15 02:40 am 1.6------ N/A-
2024-07-15 02:30 am 1.6------ N/A-
2024-07-15 02:20 am 1.6------ N/A-
2024-07-15 02:10 am 1.6------ N/A-
2024-07-15 02:00 am 1.6------ N/A-
2024-07-15 01:40 am 1.6------ N/A-
2024-07-15 01:30 am 2.0------ N/A-
2024-07-15 01:20 am 1.6------ N/A-
2024-07-15 01:10 am 1.6------ N/A-
2024-07-15 01:00 am 1.6------ N/A-
2024-07-15 12:40 am 1.6------ N/A-
2024-07-15 12:30 am 1.6------ N/A-
2024-07-15 12:20 am 1.6------ N/A-
2024-07-15 12:10 am 1.6------ N/A-
2024-07-15 12:00 am 1.6------ N/A-
2024-07-14 11:40 pm 1.6------ N/A-
2024-07-14 11:30 pm 1.6------ N/A-
2024-07-14 11:20 pm 1.6------ N/A-
2024-07-14 11:10 pm 1.3------ N/A-
2024-07-14 11:00 pm 1.3------ N/A-
2024-07-14 10:40 pm 1.3------ N/A-
2024-07-14 10:30 pm 1.3------ N/A-
2024-07-14 10:20 pm 1.3------ N/A-
2024-07-14 10:10 pm 1.3------ N/A-
2024-07-14 10:00 pm 1.6------ N/A-

Ocean Conditions at 45176 as of
(10:20 pm EDT on 07/15/2024)
0220 GMT on 07/16/2024:

These oceanographic data are displayed in rounded times.

     

Click on the graph icon in the table below to see a time series plot of the last five days of that observation.

Depth (DEPTH): 3.3 ft
5-day plot - Ocean Temperature Ocean Temperature (OTMP):74.57 °F
Previous observations
TIME
(EDT)
DEPTH
ft
5-day plot - Ocean Temperature
OTMP
°F
5-day plot - Conductivity
COND
mS/cm
5-day plot - Salinity
SAL
psu
5-day plot - Oxygen Concentration
O2%
%
5-day plot - Oxygen Concentration
O2PPM
ppm
5-day plot - Chlorophyll
CLCON
ug/l
5-day plot - Turbidity
TURB
FTU
5-day plot - pH
PH
 
5-day plot - Eh
EH
mv
2024-07-15 10:10 pm 3.374.55--------
2024-07-15 10:00 pm 3.374.61--------
2024-07-15 09:40 pm 3.374.62--------
2024-07-15 09:30 pm 3.374.61--------
2024-07-15 09:20 pm 3.374.66--------
2024-07-15 09:10 pm 3.374.66--------
2024-07-15 09:00 pm 3.374.71--------
2024-07-15 08:40 pm 3.374.77--------
2024-07-15 08:30 pm 3.374.82--------
2024-07-15 08:20 pm 3.374.79--------
2024-07-15 08:10 pm 3.374.88--------
2024-07-15 08:00 pm 3.374.88--------
2024-07-15 07:40 pm 3.374.97--------
2024-07-15 07:30 pm 3.374.95--------
2024-07-15 07:20 pm 3.374.91--------
2024-07-15 07:10 pm 3.374.91--------
2024-07-15 07:00 pm 3.374.84--------
2024-07-15 06:40 pm 3.374.77--------
2024-07-15 06:30 pm 3.374.77--------
2024-07-15 06:20 pm 3.374.70--------
2024-07-15 06:10 pm 3.374.68--------
2024-07-15 06:00 pm 3.374.59--------
2024-07-15 05:40 pm 3.374.50--------
2024-07-15 05:30 pm 3.374.50--------
2024-07-15 05:20 pm 3.374.44--------
2024-07-15 05:10 pm 3.374.50--------
2024-07-15 05:00 pm 3.374.48--------
2024-07-15 04:40 pm 3.374.34--------
2024-07-15 04:30 pm 3.374.34--------
2024-07-15 04:20 pm 3.374.28--------
2024-07-15 04:10 pm 3.374.35--------
2024-07-15 04:00 pm 3.374.34--------
2024-07-15 03:40 pm 3.374.34--------
2024-07-15 03:30 pm 3.374.30--------
2024-07-15 03:20 pm 3.374.32--------
2024-07-15 03:10 pm 3.374.32--------
2024-07-15 03:00 pm 3.374.32--------
2024-07-15 02:40 pm 3.374.32--------
2024-07-15 02:30 pm 3.374.32--------
2024-07-15 02:20 pm 3.374.25--------
2024-07-15 02:10 pm 3.374.28--------
2024-07-15 02:00 pm 3.374.26--------
2024-07-15 01:40 pm 3.374.25--------
2024-07-15 01:30 pm 3.374.28--------
2024-07-15 01:20 pm 3.374.28--------
2024-07-15 01:10 pm 3.374.28--------
2024-07-15 01:00 pm 3.374.30--------
2024-07-15 12:40 pm 3.374.34--------
2024-07-15 12:30 pm 3.374.35--------
2024-07-15 12:20 pm 3.374.35--------
2024-07-15 12:10 pm 3.374.39--------
2024-07-15 12:00 pm 3.374.41--------
2024-07-15 11:40 am 3.374.35--------
2024-07-15 11:30 am 3.374.37--------
2024-07-15 11:20 am 3.374.32--------
2024-07-15 11:10 am 3.374.30--------
2024-07-15 11:00 am 3.374.26--------
2024-07-15 10:40 am 3.374.26--------
2024-07-15 10:30 am 3.374.25--------
2024-07-15 10:20 am 3.374.23--------
2024-07-15 10:10 am 3.374.25--------
2024-07-15 10:00 am 3.374.25--------
2024-07-15 09:40 am 3.374.26--------
2024-07-15 09:30 am 3.374.28--------
2024-07-15 09:20 am 3.374.28--------
2024-07-15 09:10 am 3.374.26--------
2024-07-15 09:00 am 3.374.28--------
2024-07-15 08:40 am 3.374.26--------
2024-07-15 08:30 am 3.374.28--------
2024-07-15 08:20 am 3.374.26--------
2024-07-15 08:10 am 3.374.26--------
2024-07-15 08:00 am 3.374.28--------
2024-07-15 07:40 am 3.374.28--------
2024-07-15 07:30 am 3.374.30--------
2024-07-15 07:20 am 3.374.30--------
2024-07-15 07:10 am 3.374.28--------
2024-07-15 07:00 am 3.374.28--------
2024-07-15 06:40 am 3.374.30--------
2024-07-15 06:30 am 3.374.32--------
2024-07-15 06:20 am 3.374.32--------
2024-07-15 06:10 am 3.374.34--------
2024-07-15 06:00 am 3.374.34--------
2024-07-15 05:40 am 3.374.35--------
2024-07-15 05:30 am 3.374.35--------
2024-07-15 05:20 am 3.374.35--------
2024-07-15 05:10 am 3.374.35--------
2024-07-15 05:00 am 3.374.35--------
2024-07-15 04:40 am 3.374.37--------
2024-07-15 04:30 am 3.374.37--------
2024-07-15 04:20 am 3.374.39--------
2024-07-15 04:10 am 3.374.39--------
2024-07-15 04:00 am 3.374.41--------
2024-07-15 03:40 am 3.374.39--------
2024-07-15 03:30 am 3.374.41--------
2024-07-15 03:20 am 3.374.43--------
2024-07-15 03:10 am 3.374.41--------
2024-07-15 03:00 am 3.374.43--------
2024-07-15 02:40 am 3.374.44--------
2024-07-15 02:30 am 3.374.44--------
2024-07-15 02:20 am 3.374.46--------
2024-07-15 02:10 am 3.374.44--------
2024-07-15 02:00 am 3.374.48--------
2024-07-15 01:40 am 3.374.50--------
2024-07-15 01:30 am 3.374.52--------
2024-07-15 01:20 am 3.374.53--------
2024-07-15 01:10 am 3.374.55--------
2024-07-15 01:00 am 3.374.55--------
2024-07-15 12:40 am 3.374.57--------
2024-07-15 12:30 am 3.374.61--------
2024-07-15 12:20 am 3.374.62--------
2024-07-15 12:10 am 3.374.64--------
2024-07-15 12:00 am 3.374.66--------
2024-07-14 11:40 pm 3.374.71--------
2024-07-14 11:30 pm 3.374.75--------
2024-07-14 11:20 pm 3.374.75--------
2024-07-14 11:10 pm 3.374.79--------
2024-07-14 11:00 pm 3.374.82--------
2024-07-14 10:40 pm 3.374.84--------
2024-07-14 10:30 pm 3.374.88--------
2024-07-14 10:20 pm 3.374.89--------
2024-07-14 10:10 pm 3.374.93--------
2024-07-14 10:00 pm 3.374.97--------